createdAt,value
2017-05-03T00:02:03.011Z,38.60
2017-05-03T00:04:32.109Z,45.70
2017-05-03T00:07:01.318Z,36.12
2017-05-03T00:09:30.436Z,36.90
2017-05-03T00:11:59.523Z,36.02
2017-05-03T00:14:28.640Z,39.08
2017-05-03T00:16:57.732Z,34.58
2017-05-03T00:19:26.857Z,34.02
2017-05-03T00:21:55.942Z,35.26
2017-05-03T00:24:25.163Z,35.14
2017-05-03T00:26:54.251Z,37.68
2017-05-03T00:29:23.338Z,39.42
2017-05-03T00:31:52.708Z,40.24
2017-05-03T00:34:21.844Z,38.52
2017-05-03T00:36:51.014Z,41.10
2017-05-03T00:39:20.868Z,36.10
2017-05-03T00:41:50.694Z,42.52
2017-05-03T00:44:19.983Z,40.08
2017-05-03T00:46:50.151Z,42.06
2017-05-03T00:49:19.576Z,43.96
2017-05-03T00:51:48.660Z,40.28
2017-05-03T00:54:17.764Z,41.20
2017-05-03T00:56:46.851Z,45.10
2017-05-03T00:59:16.132Z,42.70
2017-05-03T01:01:45.229Z,40.94
2017-05-03T01:04:14.389Z,43.90
2017-05-03T01:06:44.230Z,47.14
2017-05-03T01:09:13.311Z,46.22
2017-05-03T01:11:42.430Z,43.20
2017-05-03T01:14:11.511Z,40.90
2017-05-03T01:16:41.439Z,41.14
2017-05-03T01:19:10.526Z,42.40
2017-05-03T01:21:40.319Z,42.88
2017-05-03T01:24:09.426Z,38.76
2017-05-03T01:26:38.519Z,39.24
2017-05-03T01:29:07.832Z,37.20
2017-05-03T01:31:36.912Z,39.42
2017-05-03T01:34:06.007Z,33.38
2017-05-03T01:36:35.826Z,38.36
2017-05-03T01:39:04.918Z,38.00
2017-05-03T01:41:34.155Z,34.58
2017-05-03T01:44:03.250Z,37.44
2017-05-03T01:46:32.342Z,33.10
2017-05-03T01:49:01.456Z,34.06
2017-05-03T01:51:30.535Z,34.32
2017-05-03T01:54:00.007Z,34.38
2017-05-03T01:56:29.099Z,36.30
2017-05-03T01:58:58.175Z,35.10
2017-05-03T02:01:27.286Z,36.98
2017-05-03T02:03:56.508Z,31.84
2017-05-03T02:06:25.670Z,37.12
2017-05-03T02:08:54.746Z,32.42
2017-05-03T02:11:24.571Z,36.76
2017-05-03T02:13:53.687Z,34.28
2017-05-03T02:16:22.771Z,32.62
2017-05-03T02:18:52.183Z,37.00
2017-05-03T02:21:21.264Z,33.34
2017-05-03T02:23:50.335Z,34.56
2017-05-03T02:26:20.187Z,34.68
2017-05-03T02:28:49.284Z,31.98
2017-05-03T02:31:18.368Z,30.62
2017-05-03T02:33:47.452Z,31.66
2017-05-03T02:36:17.480Z,30.22
2017-05-03T02:38:46.565Z,33.34
2017-05-03T02:41:15.642Z,32.42
2017-05-03T02:43:44.755Z,30.16
2017-05-03T02:46:13.839Z,31.44
2017-05-03T02:48:43.231Z,32.64
2017-05-03T02:51:13.054Z,30.38
2017-05-03T02:53:42.135Z,29.76
2017-05-03T02:56:10.483Z,31.54
2017-05-03T02:58:39.778Z,29.82
2017-05-03T03:01:08.887Z,31.08
2017-05-03T03:03:37.980Z,30.52
2017-05-03T03:06:07.194Z,29.68
2017-05-03T03:08:37.020Z,30.26
2017-05-03T03:11:06.102Z,30.26
2017-05-03T03:13:35.961Z,30.62
2017-05-03T03:16:05.043Z,30.88
2017-05-03T03:18:34.861Z,31.60
2017-05-03T03:21:03.951Z,30.94
2017-05-03T03:23:33.182Z,36.42
2017-05-03T03:26:02.252Z,31.54
2017-05-03T03:28:31.319Z,30.80
2017-05-03T03:31:01.142Z,32.48
2017-05-03T03:33:30.240Z,34.38
2017-05-03T03:35:59.343Z,34.28
2017-05-03T03:38:28.434Z,33.82
2017-05-03T03:40:57.651Z,30.82
2017-05-03T03:43:26.740Z,31.32
2017-05-03T03:45:55.822Z,25.90
2017-05-03T03:48:25.178Z,26.16
2017-05-03T03:50:54.250Z,24.60
2017-05-03T03:53:23.359Z,25.46
2017-05-03T03:55:53.206Z,25.24
2017-05-03T03:58:22.700Z,25.30
2017-05-03T04:00:51.795Z,25.46
2017-05-03T04:03:21.051Z,28.62
2017-05-03T04:05:50.132Z,28.02
2017-05-03T04:08:19.225Z,26.72
2017-05-03T04:10:48.723Z,27.40
2017-05-03T04:13:17.814Z,24.64
2017-05-03T04:15:46.898Z,22.04
2017-05-03T04:18:16.016Z,23.72
2017-05-03T04:20:45.106Z,22.90
2017-05-03T04:23:14.185Z,20.10
2017-05-03T04:25:43.983Z,21.74
2017-05-03T04:28:13.223Z,18.56
2017-05-03T04:30:43.121Z,25.76
2017-05-03T04:33:12.196Z,25.16
2017-05-03T04:35:41.318Z,26.42
2017-05-03T04:38:10.418Z,23.02
2017-05-03T04:40:39.547Z,24.16
2017-05-03T04:43:09.404Z,24.34
2017-05-03T04:45:38.642Z,23.14
2017-05-03T04:48:07.714Z,23.64
2017-05-03T04:50:36.835Z,22.04
2017-05-03T04:53:06.008Z,25.50
2017-05-03T04:55:35.079Z,21.82
2017-05-03T04:58:04.508Z,22.38
2017-05-03T05:00:33.590Z,21.90
2017-05-03T05:03:02.694Z,21.76
2017-05-03T05:05:31.820Z,23.12
2017-05-03T05:08:01.661Z,22.38
2017-05-03T05:10:31.591Z,20.24
2017-05-03T05:13:00.684Z,18.42
2017-05-03T05:15:29.776Z,19.40
2017-05-03T05:17:58.887Z,20.22
2017-05-03T05:20:27.980Z,19.20
2017-05-03T05:22:57.370Z,19.10
2017-05-03T05:25:26.464Z,19.00
2017-05-03T05:27:55.703Z,18.06
2017-05-03T05:30:24.814Z,16.68
2017-05-03T05:32:54.651Z,16.58
2017-05-03T05:35:23.870Z,19.12
2017-05-03T05:37:52.963Z,18.12
2017-05-03T05:40:22.091Z,17.64
2017-05-03T05:42:51.391Z,17.72
2017-05-03T05:45:20.723Z,17.04
2017-05-03T05:47:50.379Z,16.96
2017-05-03T05:50:19.478Z,17.02
2017-05-03T05:52:48.558Z,16.50
2017-05-03T05:55:17.698Z,16.88
2017-05-03T05:57:46.828Z,18.16
2017-05-03T06:00:15.906Z,23.02
2017-05-03T06:02:45.735Z,17.26
2017-05-03T06:05:14.859Z,19.22
2017-05-03T06:07:44.094Z,25.22
2017-05-03T06:10:13.262Z,25.14
2017-05-03T06:12:42.466Z,18.90
2017-05-03T06:15:11.543Z,17.88
2017-05-03T06:17:40.621Z,17.84
2017-05-03T06:20:10.455Z,17.98
2017-05-03T06:22:39.544Z,19.00
2017-05-03T06:25:08.738Z,18.98
2017-05-03T06:27:37.811Z,18.10
2017-05-03T06:30:06.863Z,16.72
2017-05-03T06:32:35.974Z,17.94
2017-05-03T06:35:05.087Z,18.62
2017-05-03T06:37:34.283Z,20.84
2017-05-03T06:40:03.351Z,18.46
2017-05-03T06:42:32.450Z,18.28
2017-05-03T06:45:01.538Z,17.68
2017-05-03T06:47:30.643Z,18.64
2017-05-03T06:49:59.895Z,19.72
2017-05-03T06:52:29.215Z,19.06
2017-05-03T06:54:58.323Z,19.22
2017-05-03T06:57:27.439Z,20.40
2017-05-03T06:59:57.296Z,21.10
2017-05-03T07:02:26.507Z,19.56
2017-05-03T07:04:55.611Z,20.42
2017-05-03T07:07:24.707Z,22.10
2017-05-03T07:09:54.591Z,22.12
2017-05-03T07:12:23.678Z,22.78
2017-05-03T07:14:53.622Z,21.02
2017-05-03T07:17:22.715Z,19.08
2017-05-03T07:19:51.806Z,23.30
2017-05-03T07:22:21.050Z,22.76
2017-05-03T07:24:50.885Z,23.70
2017-05-03T07:27:20.099Z,23.62
2017-05-03T07:29:49.287Z,22.86
2017-05-03T07:32:18.523Z,22.50
2017-05-03T07:34:47.654Z,24.58
2017-05-03T07:37:16.749Z,26.00
2017-05-03T07:39:45.839Z,23.34
2017-05-03T07:42:15.802Z,24.34
2017-05-03T07:44:44.898Z,25.12
2017-05-03T07:47:13.987Z,25.62
2017-05-03T07:49:43.212Z,24.18
2017-05-03T07:52:12.312Z,26.12
2017-05-03T07:54:41.411Z,23.56
2017-05-03T07:57:10.513Z,25.56
2017-05-03T07:59:40.346Z,23.80
2017-05-03T08:02:10.552Z,26.06
2017-05-03T08:04:40.387Z,28.98
2017-05-03T08:07:09.486Z,25.42
2017-05-03T08:09:38.631Z,29.78
2017-05-03T08:12:07.742Z,28.60
2017-05-03T08:14:36.958Z,28.34
2017-05-03T08:17:06.072Z,25.06
2017-05-03T08:19:35.123Z,28.58
2017-05-03T08:22:04.251Z,23.00
2017-05-03T08:24:33.356Z,24.94
2017-05-03T08:27:03.318Z,23.48
2017-05-03T08:29:32.383Z,22.48
2017-05-03T08:32:01.467Z,18.02
2017-05-03T08:34:30.583Z,16.70
2017-05-03T08:36:59.686Z,19.24
2017-05-03T08:39:28.828Z,20.38
2017-05-03T08:41:57.931Z,17.90
2017-05-03T08:44:27.106Z,23.70
2017-05-03T08:46:56.942Z,19.16
2017-05-03T08:49:26.033Z,19.92
2017-05-03T08:51:55.151Z,22.58
2017-05-03T08:54:25.050Z,24.44
2017-05-03T08:56:54.875Z,21.10
2017-05-03T09:01:45.280Z,22.34
2017-05-03T09:04:14.359Z,24.46
2017-05-03T09:06:44.179Z,25.50
2017-05-03T09:09:14.013Z,24.34
2017-05-03T09:11:43.075Z,26.22
2017-05-03T09:14:13.021Z,25.54
2017-05-03T09:16:42.086Z,25.68
2017-05-03T09:19:11.898Z,27.40
2017-05-03T09:21:40.994Z,28.00
2017-05-03T09:24:10.087Z,29.76
2017-05-03T09:26:39.290Z,28.80
2017-05-03T09:29:08.412Z,26.60
2017-05-03T09:31:37.478Z,32.46
2017-05-03T09:34:07.343Z,28.56
2017-05-03T09:36:36.443Z,29.62
2017-05-03T09:39:05.543Z,31.28
2017-05-03T09:41:34.606Z,32.22
2017-05-03T09:44:04.112Z,30.44
2017-05-03T09:46:33.154Z,33.02
2017-05-03T09:49:02.980Z,35.04
2017-05-03T09:51:32.058Z,37.02
2017-05-03T09:54:01.883Z,34.64
2017-05-03T09:56:31.007Z,32.12
2017-05-03T09:59:00.804Z,34.18
2017-05-03T10:01:30.323Z,33.30
2017-05-03T10:03:59.405Z,37.30
2017-05-03T10:06:28.466Z,34.94
2017-05-03T10:08:57.549Z,35.72
2017-05-03T10:11:26.709Z,32.86
2017-05-03T10:13:55.922Z,28.04
2017-05-03T10:16:24.992Z,31.86
2017-05-03T10:18:54.085Z,29.14
2017-05-03T10:21:23.203Z,31.32
2017-05-03T10:23:52.319Z,30.64
2017-05-03T10:26:21.551Z,31.40
2017-05-03T10:28:51.393Z,26.46
2017-05-03T10:31:20.468Z,30.10
2017-05-03T10:33:49.571Z,27.42
2017-05-03T10:36:18.662Z,28.26
2017-05-03T10:38:48.896Z,23.92
2017-05-03T10:41:17.952Z,24.12
2017-05-03T10:43:47.778Z,22.64
2017-05-03T10:46:17.623Z,25.44
2017-05-03T10:48:46.722Z,24.88
2017-05-03T10:51:15.955Z,26.16
2017-05-03T10:53:45.792Z,25.42
2017-05-03T10:56:14.886Z,26.08
2017-05-03T10:58:43.974Z,24.26
2017-05-03T11:01:14.669Z,22.76
2017-05-03T11:03:44.047Z,23.64
2017-05-03T11:06:13.167Z,20.96
2017-05-03T11:08:42.238Z,22.18
2017-05-03T11:11:11.433Z,22.90
2017-05-03T11:13:40.631Z,23.30
2017-05-03T11:16:09.702Z,24.36
2017-05-03T11:18:39.642Z,24.10
2017-05-03T11:21:08.838Z,24.68
2017-05-03T11:23:37.899Z,25.40
2017-05-03T11:26:07.028Z,26.66
2017-05-03T11:28:36.116Z,28.66
2017-05-03T11:31:05.206Z,26.60
2017-05-03T11:33:34.419Z,25.68
2017-05-03T11:36:03.619Z,24.74
2017-05-03T11:38:32.703Z,25.22
2017-05-03T11:41:02.490Z,28.30
2017-05-03T11:43:31.699Z,26.12
2017-05-03T11:46:01.506Z,26.70
2017-05-03T11:48:31.336Z,26.36
2017-05-03T11:51:00.418Z,25.80
2017-05-03T11:53:29.506Z,28.42
2017-05-03T11:55:59.634Z,28.68
2017-05-03T11:58:28.699Z,30.60
2017-05-03T12:00:57.760Z,32.94
2017-05-03T12:03:26.836Z,29.86
2017-05-03T12:05:55.910Z,29.18
2017-05-03T12:08:25.198Z,27.92
2017-05-03T12:10:54.302Z,28.70
2017-05-03T12:13:23.523Z,26.48
2017-05-03T12:15:52.623Z,26.12
2017-05-03T12:18:21.739Z,26.46
2017-05-03T12:20:50.855Z,28.78
2017-05-03T12:23:19.966Z,25.44
2017-05-03T12:25:50.187Z,26.40
2017-05-03T12:28:19.333Z,26.94
2017-05-03T12:30:48.426Z,27.14
2017-05-03T12:33:17.654Z,27.06
2017-05-03T12:35:46.750Z,27.82
2017-05-03T12:40:52.121Z,30.64
2017-05-03T12:43:21.234Z,30.22
2017-05-03T12:45:50.322Z,34.26
2017-05-03T12:48:20.138Z,33.62
2017-05-03T12:50:49.267Z,29.68
2017-05-03T12:53:18.347Z,29.94
2017-05-03T12:55:47.613Z,31.70
2017-05-03T12:58:16.699Z,31.90
2017-05-03T13:00:45.823Z,27.38
2017-05-03T13:03:14.924Z,27.62
2017-05-03T13:05:44.722Z,28.78
2017-05-03T13:08:13.937Z,30.82
2017-05-03T13:10:42.994Z,28.84
2017-05-03T13:13:12.879Z,29.90
2017-05-03T13:15:41.964Z,31.90
2017-05-03T13:18:11.056Z,31.06
2017-05-03T13:20:40.267Z,25.02
2017-05-03T13:23:09.346Z,29.58
2017-05-03T13:25:38.430Z,29.12
2017-05-03T13:28:07.518Z,26.38
2017-05-03T13:30:36.616Z,26.66
2017-05-03T13:33:05.714Z,31.00
2017-05-03T13:35:34.770Z,31.94
2017-05-03T13:38:04.598Z,30.52
2017-05-03T13:40:33.704Z,31.36
2017-05-03T13:43:02.902Z,30.00
2017-05-03T13:45:31.996Z,31.58
2017-05-03T13:48:01.117Z,30.78
2017-05-03T13:50:30.225Z,30.54
2017-05-03T13:52:59.283Z,30.04
2017-05-03T13:55:28.402Z,34.32
2017-05-03T13:57:57.506Z,28.18
2017-05-03T14:00:26.971Z,27.26
2017-05-03T14:02:56.042Z,29.44
2017-05-03T14:05:25.118Z,31.36
2017-05-03T14:07:54.247Z,27.90
2017-05-03T14:10:24.031Z,28.70
2017-05-03T14:12:53.374Z,28.84
2017-05-03T14:15:22.455Z,28.78
2017-05-03T14:17:51.699Z,29.22
2017-05-03T14:20:20.805Z,28.12
2017-05-03T14:22:50.672Z,26.44
2017-05-03T14:25:19.899Z,28.36
2017-05-03T14:27:48.994Z,26.26
2017-05-03T14:30:18.091Z,27.36
2017-05-03T14:32:47.198Z,24.48
2017-05-03T14:35:17.027Z,26.80
2017-05-03T14:37:46.890Z,26.42
2017-05-03T14:40:15.967Z,25.14
2017-05-03T14:42:45.230Z,25.74
2017-05-03T14:45:14.357Z,25.10
2017-05-03T14:47:43.441Z,24.34
2017-05-03T14:50:13.270Z,27.08
2017-05-03T14:52:42.354Z,26.98
2017-05-03T14:55:11.447Z,29.26
2017-05-03T14:57:40.518Z,28.50
2017-05-03T15:00:10.460Z,27.92
2017-05-03T15:02:39.562Z,24.34
2017-05-03T15:05:08.768Z,24.32
2017-05-03T15:07:37.872Z,23.70
2017-05-03T15:10:06.999Z,24.22
2017-05-03T15:12:36.135Z,24.94
2017-05-03T15:15:05.938Z,26.08
2017-05-03T15:17:35.982Z,24.96
2017-05-03T15:20:05.086Z,26.70
2017-05-03T15:22:34.147Z,23.26
2017-05-03T15:25:03.998Z,26.50
2017-05-03T15:27:33.061Z,24.12
2017-05-03T15:30:02.162Z,27.12
2017-05-03T15:32:31.271Z,27.04
2017-05-03T15:35:00.375Z,24.16
2017-05-03T15:37:29.441Z,29.66
2017-05-03T15:39:58.945Z,25.30
2017-05-03T15:42:28.006Z,24.40
2017-05-03T15:44:57.074Z,27.20
2017-05-03T15:47:26.183Z,24.90
2017-05-03T15:49:56.019Z,25.26
2017-05-03T15:52:25.869Z,23.36
2017-05-03T15:54:54.964Z,25.40
2017-05-03T15:57:24.066Z,21.84
2017-05-03T15:59:53.312Z,24.28
2017-05-03T16:02:23.167Z,19.68
2017-05-03T16:04:52.238Z,19.22
2017-05-03T16:07:21.446Z,20.04
2017-05-03T16:09:50.664Z,21.10
2017-05-03T16:12:19.739Z,20.82
2017-05-03T16:14:48.831Z,21.50
2017-05-03T16:17:17.906Z,17.82
2017-05-03T16:19:47.163Z,20.66
2017-05-03T16:22:16.269Z,21.00
2017-05-03T16:24:45.367Z,21.14
2017-05-03T16:27:14.431Z,19.58
2017-05-03T16:29:43.533Z,19.86
2017-05-03T16:32:12.599Z,19.26
2017-05-03T16:34:41.830Z,19.50
2017-05-03T16:37:10.960Z,20.60
2017-05-03T16:39:40.065Z,18.72
2017-05-03T16:42:09.910Z,19.76
2017-05-03T16:44:38.980Z,18.32
2017-05-03T16:47:08.210Z,17.70
2017-05-03T16:49:37.285Z,18.14
2017-05-03T16:52:06.371Z,17.00
2017-05-03T16:54:35.486Z,16.76
2017-05-03T16:57:04.562Z,18.98
2017-05-03T16:59:34.653Z,19.58
2017-05-03T17:02:04.476Z,18.10
2017-05-03T17:04:33.539Z,18.02
2017-05-03T17:07:02.663Z,18.18
2017-05-03T17:09:32.490Z,18.70
2017-05-03T17:12:01.710Z,18.94
2017-05-03T17:14:30.767Z,23.40
2017-05-03T17:16:59.851Z,21.84
2017-05-03T17:19:28.943Z,25.04
2017-05-03T17:21:58.014Z,22.42
2017-05-03T17:24:27.379Z,21.30
2017-05-03T17:26:56.476Z,20.80
2017-05-03T17:29:25.900Z,20.68
2017-05-03T17:31:55.014Z,19.56
2017-05-03T17:34:24.082Z,20.76
2017-05-03T17:36:54.106Z,19.44
2017-05-03T17:39:23.235Z,17.60
2017-05-03T17:41:52.436Z,16.38
2017-05-03T17:44:21.521Z,18.32
2017-05-03T17:46:50.597Z,17.98
2017-05-03T17:49:20.688Z,16.80
2017-05-03T17:51:49.815Z,19.72
2017-05-03T17:54:19.023Z,17.26
2017-05-03T17:56:48.106Z,17.40
2017-05-03T17:59:17.959Z,17.24
2017-05-03T18:01:47.828Z,17.84
2017-05-03T18:04:16.894Z,20.00
2017-05-03T18:06:46.291Z,19.26
2017-05-03T18:09:15.370Z,16.32
2017-05-03T18:11:45.177Z,17.78
2017-05-03T18:14:14.279Z,16.70
2017-05-03T18:16:43.373Z,17.18
2017-05-03T18:19:12.475Z,16.64
2017-05-03T18:21:41.535Z,17.44
2017-05-03T18:24:10.622Z,16.52
2017-05-03T18:26:39.723Z,15.46
2017-05-03T18:29:09.399Z,16.56
2017-05-03T18:31:38.485Z,16.88
2017-05-03T18:34:07.695Z,15.58
2017-05-03T18:36:36.770Z,16.02
2017-05-03T18:39:05.848Z,14.58
2017-05-03T18:41:34.960Z,15.92
2017-05-03T18:44:04.015Z,14.68
2017-05-03T18:46:33.867Z,15.30
2017-05-03T18:49:02.947Z,15.18
2017-05-03T18:51:32.047Z,15.82
2017-05-03T18:54:01.127Z,15.24
2017-05-03T18:56:31.358Z,16.16
2017-05-03T18:59:00.431Z,16.06
2017-05-03T19:01:30.286Z,14.84
2017-05-03T19:03:59.390Z,15.78
2017-05-03T19:06:28.467Z,15.84
2017-05-03T19:09:01.231Z,15.40
2017-05-03T19:11:31.038Z,14.08
2017-05-03T19:14:01.048Z,15.08
2017-05-03T19:16:30.148Z,15.38
2017-05-03T19:19:00.891Z,17.66
2017-05-03T19:21:29.991Z,16.62
2017-05-03T19:23:59.074Z,18.20
2017-05-03T19:26:28.284Z,17.26
2017-05-03T19:28:58.075Z,17.22
2017-05-03T19:31:27.900Z,17.96
2017-05-03T19:33:56.976Z,15.50
2017-05-03T19:36:26.203Z,18.58
2017-05-03T19:38:55.307Z,19.36
2017-05-03T19:41:24.818Z,19.42
2017-05-03T19:43:53.898Z,17.36
2017-05-03T19:46:22.974Z,19.08
2017-05-03T19:48:52.070Z,18.66
2017-05-03T19:51:21.195Z,19.32
2017-05-03T19:53:50.677Z,18.06
2017-05-03T19:56:19.750Z,19.28
2017-05-03T19:58:49.558Z,20.12
2017-05-03T20:01:18.833Z,21.82
2017-05-03T20:03:47.939Z,18.44
2017-05-03T20:06:17.782Z,18.66
2017-05-03T20:08:46.851Z,19.32
2017-05-03T20:11:16.902Z,20.42
2017-05-03T20:13:45.966Z,18.16
2017-05-03T20:16:15.797Z,18.52
2017-05-03T20:18:45.627Z,15.40
2017-05-03T20:21:14.717Z,18.40
2017-05-03T20:23:43.944Z,15.50
2017-05-03T20:26:13.027Z,15.76
2017-05-03T20:28:42.105Z,15.08
2017-05-03T20:31:11.202Z,14.36
2017-05-03T20:33:40.271Z,14.32
2017-05-03T20:36:10.125Z,14.84
2017-05-03T20:38:39.178Z,14.12
2017-05-03T20:41:08.382Z,14.50
2017-05-03T20:43:37.470Z,12.20
2017-05-03T20:46:07.275Z,14.20
2017-05-03T20:48:37.116Z,14.96
2017-05-03T20:51:06.222Z,13.16
2017-05-03T20:53:35.449Z,12.08
2017-05-03T20:58:40.039Z,13.62
2017-05-03T21:01:09.115Z,13.86
2017-05-03T21:03:38.342Z,15.44
2017-05-03T21:06:07.535Z,13.08
2017-05-03T21:08:36.616Z,11.84
2017-05-03T21:11:05.688Z,13.16
2017-05-03T21:13:35.540Z,11.54
2017-05-03T21:16:04.623Z,12.54
2017-05-03T21:18:34.439Z,13.52
2017-05-03T21:21:03.500Z,13.58
2017-05-03T21:23:32.586Z,27.86
2017-05-03T21:26:02.424Z,11.26
2017-05-03T21:28:31.949Z,11.82
2017-05-03T21:31:01.453Z,11.90
2017-05-03T21:33:30.524Z,14.74
2017-05-03T21:35:59.598Z,12.54
2017-05-03T21:38:28.658Z,12.72
2017-05-03T21:40:57.751Z,11.92
2017-05-03T21:43:26.819Z,11.16
2017-05-03T21:45:56.026Z,10.52
2017-05-03T21:48:25.100Z,12.34
2017-05-03T21:50:54.923Z,11.06
2017-05-03T21:53:24.029Z,11.48
2017-05-03T21:55:53.090Z,13.96
2017-05-03T21:58:22.938Z,11.08
2017-05-03T22:00:52.058Z,11.10
2017-05-03T22:03:21.252Z,10.66
2017-05-03T22:05:50.317Z,10.40
2017-05-03T22:08:19.411Z,11.26
2017-05-03T22:10:48.504Z,10.44
2017-05-03T22:13:17.554Z,9.22
2017-05-03T22:15:46.654Z,13.48
2017-05-03T22:18:15.723Z,12.12
2017-05-03T22:20:45.762Z,10.66
2017-05-03T22:23:14.820Z,9.92
2017-05-03T22:25:43.863Z,10.20
2017-05-03T22:28:12.946Z,12.16
2017-05-03T22:30:42.012Z,13.52
2017-05-03T22:33:11.474Z,12.92
2017-05-03T22:35:40.543Z,15.20
2017-05-03T22:38:10.366Z,14.04
2017-05-03T22:40:39.480Z,13.38
2017-05-03T22:43:08.596Z,11.38
2017-05-03T22:45:37.971Z,10.88
2017-05-03T22:48:07.775Z,11.20
2017-05-03T22:50:36.871Z,10.82
2017-05-03T22:53:05.971Z,11.06
2017-05-03T22:55:35.034Z,10.64
2017-05-03T22:58:04.111Z,9.32
2017-05-03T23:00:33.184Z,10.74
2017-05-03T23:03:02.436Z,8.82
2017-05-03T23:05:32.238Z,10.14
2017-05-03T23:08:01.495Z,9.90
2017-05-03T23:10:30.589Z,8.48
2017-05-03T23:12:59.680Z,8.88
2017-05-03T23:15:29.263Z,11.08
2017-05-03T23:17:58.336Z,10.14
2017-05-03T23:20:28.142Z,8.98
2017-05-03T23:22:57.251Z,17.84
2017-05-03T23:25:26.322Z,12.16
2017-05-03T23:27:56.158Z,10.40
2017-05-03T23:30:25.228Z,11.26
2017-05-03T23:32:54.307Z,10.60
2017-05-03T23:35:23.386Z,14.20
2017-05-03T23:37:52.442Z,9.68
2017-05-03T23:40:21.530Z,13.62
2017-05-03T23:42:50.605Z,14.82
2017-05-03T23:45:19.810Z,9.12
2017-05-03T23:47:49.615Z,9.32
2017-05-03T23:50:19.434Z,8.24
2017-05-03T23:52:48.551Z,8.48
2017-05-03T23:55:17.627Z,8.58
2017-05-03T23:57:47.826Z,11.60
